createdAt,value
2022-07-28T00:01:40.612Z,1.13
2022-07-28T00:04:08.923Z,3.33
2022-07-28T00:06:37.108Z,1.77
2022-07-28T00:09:06.655Z,1.33
2022-07-28T00:11:34.762Z,1.30
2022-07-28T00:14:18.543Z,1.67
2022-07-28T00:16:46.780Z,3.23
2022-07-28T00:19:15.028Z,2.57
2022-07-28T00:21:43.129Z,1.80
2022-07-28T00:24:13.156Z,2.00
2022-07-28T00:26:41.510Z,2.73
2022-07-28T00:29:10.060Z,1.30
2022-07-28T00:31:38.203Z,1.57
2022-07-28T00:34:06.493Z,2.20
2022-07-28T00:36:34.659Z,2.73
2022-07-28T00:39:03.762Z,1.87
2022-07-28T00:41:33.258Z,1.20
2022-07-28T00:44:01.345Z,1.90
2022-07-28T00:46:29.975Z,1.10
2022-07-28T00:48:58.184Z,1.93
2022-07-28T00:51:27.716Z,1.00
2022-07-28T00:53:56.477Z,2.80
2022-07-28T00:56:25.373Z,2.20
2022-07-28T00:58:54.866Z,2.77
2022-07-28T01:01:24.188Z,1.63
2022-07-28T01:03:55.111Z,1.00
2022-07-28T01:06:55.536Z,1.20
2022-07-28T01:09:39.678Z,1.67
2022-07-28T01:12:37.242Z,1.53
2022-07-28T01:15:14.954Z,1.37
2022-07-28T01:17:49.315Z,2.33
2022-07-28T01:20:24.032Z,2.17
2022-07-28T01:23:05.505Z,1.70
2022-07-28T01:25:48.171Z,1.50
2022-07-28T01:28:27.645Z,3.67
2022-07-28T01:31:00.151Z,1.20
2022-07-28T01:33:34.903Z,1.60
2022-07-28T01:36:06.813Z,4.77
2022-07-28T01:38:36.557Z,2.20
2022-07-28T01:41:06.477Z,2.93
2022-07-28T01:43:39.411Z,2.73
2022-07-28T01:46:10.351Z,2.10
2022-07-28T01:48:41.243Z,1.37
2022-07-28T01:51:11.157Z,2.70
2022-07-28T01:53:41.026Z,2.47
2022-07-28T01:56:09.745Z,1.27
2022-07-28T01:58:39.953Z,1.70
2022-07-28T02:01:12.944Z,1.37
2022-07-28T02:03:44.797Z,1.30
2022-07-28T02:06:14.995Z,1.57
2022-07-28T02:08:45.589Z,0.90
2022-07-28T02:11:31.426Z,1.73
2022-07-28T02:13:59.975Z,1.87
2022-07-28T02:16:30.587Z,2.47
2022-07-28T02:19:00.254Z,1.10
2022-07-28T02:21:32.404Z,1.10
2022-07-28T02:24:07.131Z,1.67
2022-07-28T02:26:38.490Z,2.13
2022-07-28T02:29:22.273Z,1.20
2022-07-28T02:32:23.922Z,2.57
2022-07-28T02:34:59.980Z,1.67
2022-07-28T02:37:28.935Z,1.90
2022-07-28T02:40:00.473Z,1.30
2022-07-28T02:42:34.411Z,2.40
2022-07-28T02:45:06.005Z,2.67
2022-07-28T02:47:42.273Z,1.83
2022-07-28T02:50:15.392Z,2.70
2022-07-28T02:52:46.257Z,1.23
2022-07-28T02:55:16.671Z,1.37
2022-07-28T02:57:47.144Z,1.60
2022-07-28T03:00:16.046Z,1.50
2022-07-28T03:02:47.060Z,1.70
2022-07-28T03:05:16.468Z,2.90
2022-07-28T03:07:51.135Z,1.30
2022-07-28T03:10:33.989Z,1.30
2022-07-28T03:13:03.720Z,1.63
2022-07-28T03:15:32.102Z,1.83
2022-07-28T03:18:02.415Z,2.53
2022-07-28T03:20:30.620Z,3.43
2022-07-28T03:22:59.349Z,3.20
2022-07-28T03:25:32.838Z,1.37
2022-07-28T03:28:02.402Z,1.70
2022-07-28T03:30:35.974Z,2.53
2022-07-28T03:33:05.875Z,2.03
2022-07-28T03:35:35.976Z,2.13
2022-07-28T03:38:14.413Z,3.73
2022-07-28T03:40:47.555Z,2.53
2022-07-28T03:43:17.259Z,2.90
2022-07-28T03:45:47.767Z,2.63
2022-07-28T03:48:17.482Z,1.40
2022-07-28T03:50:45.630Z,1.70
2022-07-28T03:53:20.645Z,1.40
2022-07-28T03:55:50.934Z,2.27
2022-07-28T03:58:19.457Z,1.63
2022-07-28T04:00:47.952Z,1.20
2022-07-28T04:03:36.314Z,2.57
2022-07-28T04:06:06.800Z,1.40
2022-07-28T04:08:35.155Z,1.80
2022-07-28T04:11:03.334Z,1.53
2022-07-28T04:13:32.301Z,1.73
2022-07-28T04:16:00.712Z,1.50
2022-07-28T04:18:30.272Z,2.30
2022-07-28T04:20:58.335Z,1.93
2022-07-28T04:23:26.607Z,2.10
2022-07-28T04:25:55.390Z,1.73
2022-07-28T04:28:24.199Z,1.20
2022-07-28T04:30:52.502Z,5.23
2022-07-28T04:33:20.810Z,2.40
2022-07-28T04:35:52.616Z,3.90
2022-07-28T04:38:21.115Z,3.23
2022-07-28T04:40:49.893Z,2.30
2022-07-28T04:43:18.044Z,1.00
2022-07-28T04:45:54.251Z,1.80
2022-07-28T04:48:23.860Z,2.50
2022-07-28T04:50:53.700Z,2.80
2022-07-28T04:53:23.043Z,1.63
2022-07-28T04:55:53.499Z,2.60
2022-07-28T04:58:23.564Z,3.63
2022-07-28T05:00:52.566Z,2.17
2022-07-28T05:03:21.549Z,2.27
2022-07-28T05:05:54.637Z,1.93
2022-07-28T05:08:26.578Z,4.17
2022-07-28T05:10:56.282Z,1.67
2022-07-28T05:13:26.773Z,2.20
2022-07-28T05:15:57.150Z,2.73
2022-07-28T05:18:25.309Z,1.20
2022-07-28T05:20:53.401Z,1.53
2022-07-28T05:23:21.554Z,1.30
2022-07-28T05:25:51.145Z,3.10
2022-07-28T05:28:19.268Z,1.73
2022-07-28T05:30:47.367Z,1.63
2022-07-28T05:33:16.564Z,2.03
2022-07-28T05:35:45.664Z,3.43
2022-07-28T05:38:14.282Z,4.50
2022-07-28T05:40:42.412Z,1.37
2022-07-28T05:43:11.883Z,1.70
2022-07-28T05:45:40.059Z,2.33
2022-07-28T05:48:08.494Z,1.93
2022-07-28T05:50:36.730Z,2.83
2022-07-28T05:53:05.048Z,1.63
2022-07-28T05:55:33.112Z,1.90
2022-07-28T05:58:01.258Z,1.47
2022-07-28T06:00:32.215Z,2.77
2022-07-28T06:03:02.040Z,4.50
2022-07-28T06:05:31.965Z,2.10
2022-07-28T06:08:01.149Z,1.40
2022-07-28T06:10:51.633Z,2.80
2022-07-28T06:13:20.458Z,2.20
2022-07-28T06:15:51.509Z,1.60
2022-07-28T06:18:19.835Z,2.47
2022-07-28T06:20:48.489Z,1.57
2022-07-28T06:23:20.466Z,1.80
2022-07-28T06:25:49.161Z,1.53
2022-07-28T06:28:18.830Z,2.53
2022-07-28T06:30:48.189Z,2.00
2022-07-28T06:33:19.315Z,2.20
2022-07-28T06:35:50.917Z,3.10
2022-07-28T06:38:20.484Z,1.67
2022-07-28T06:40:48.820Z,2.83
2022-07-28T06:43:16.896Z,3.07
2022-07-28T06:45:46.140Z,2.23
2022-07-28T06:48:15.387Z,2.87
2022-07-28T06:50:44.760Z,2.47
2022-07-28T06:53:12.951Z,2.50
2022-07-28T06:55:41.204Z,2.83
2022-07-28T06:58:09.626Z,3.73
2022-07-28T07:00:37.864Z,3.37
2022-07-28T07:03:09.581Z,2.87
2022-07-28T07:05:38.107Z,3.33
2022-07-28T07:08:07.808Z,2.83
2022-07-28T07:10:36.660Z,2.90
2022-07-28T07:13:04.866Z,2.47
2022-07-28T07:15:34.761Z,3.00
2022-07-28T07:18:03.175Z,5.13
2022-07-28T07:20:31.375Z,2.70
2022-07-28T07:22:59.545Z,2.90
2022-07-28T07:25:29.012Z,3.00
2022-07-28T07:27:57.147Z,3.00
2022-07-28T07:30:25.430Z,5.33
2022-07-28T07:32:53.570Z,3.23
2022-07-28T07:35:21.738Z,3.50
2022-07-28T07:37:49.857Z,3.00
2022-07-28T07:40:17.967Z,3.03
2022-07-28T07:42:47.494Z,4.00
2022-07-28T07:45:15.655Z,3.50
2022-07-28T07:47:43.807Z,3.40
2022-07-28T07:50:11.998Z,3.33
2022-07-28T07:52:40.097Z,3.30
2022-07-28T07:55:09.215Z,3.50
2022-07-28T07:57:37.396Z,2.97
2022-07-28T08:00:08.094Z,3.70
2022-07-28T08:02:56.208Z,3.50
2022-07-28T08:05:34.850Z,4.77
2022-07-28T08:08:05.154Z,3.43
2022-07-28T08:10:33.482Z,4.50
2022-07-28T08:13:01.740Z,3.30
2022-07-28T08:15:31.835Z,4.90
2022-07-28T08:17:59.892Z,3.03
2022-07-28T08:20:28.399Z,3.77
2022-07-28T08:22:58.704Z,3.67
2022-07-28T08:25:27.509Z,3.50
2022-07-28T08:27:55.708Z,4.97
2022-07-28T08:30:27.409Z,3.40
2022-07-28T08:33:02.785Z,5.80
2022-07-28T08:35:34.088Z,4.27
2022-07-28T08:38:04.529Z,3.53
2022-07-28T08:40:33.430Z,7.17
2022-07-28T08:43:08.455Z,4.00
2022-07-28T08:45:37.562Z,4.13
2022-07-28T08:48:09.846Z,5.20
2022-07-28T08:50:39.513Z,3.17
2022-07-28T08:53:08.737Z,4.23
2022-07-28T08:55:37.446Z,3.93
2022-07-28T08:58:05.885Z,3.77
2022-07-28T09:00:34.389Z,3.77
2022-07-28T09:03:04.793Z,4.37
2022-07-28T09:05:34.858Z,3.37
2022-07-28T09:08:04.034Z,3.03
2022-07-28T09:10:32.256Z,3.20
2022-07-28T09:13:00.302Z,4.60
2022-07-28T09:15:28.552Z,5.27
2022-07-28T09:17:56.751Z,4.20
2022-07-28T09:20:25.226Z,4.00
2022-07-28T09:22:59.401Z,3.70
2022-07-28T09:25:28.095Z,3.17
2022-07-28T09:27:56.671Z,3.57
2022-07-28T09:30:32.686Z,3.27
2022-07-28T09:33:42.645Z,4.40
2022-07-28T09:36:03.259Z,4.00
2022-07-28T09:38:41.847Z,3.23
2022-07-28T09:41:09.970Z,3.33
2022-07-28T09:43:39.275Z,4.00
2022-07-28T09:46:10.120Z,3.77
2022-07-28T09:48:52.540Z,4.13
2022-07-28T09:51:22.451Z,4.13
2022-07-28T09:53:53.060Z,4.80
2022-07-28T09:56:23.354Z,3.50
2022-07-28T09:58:55.720Z,4.67
2022-07-28T10:01:28.040Z,4.93
2022-07-28T10:04:03.961Z,4.53
2022-07-28T10:06:34.265Z,4.33
2022-07-28T10:09:05.856Z,3.80
2022-07-28T10:11:37.868Z,4.73
2022-07-28T10:14:09.570Z,3.40
2022-07-28T10:16:44.279Z,3.97
2022-07-28T10:19:12.408Z,3.97
2022-07-28T10:21:45.254Z,3.40
2022-07-28T10:24:22.007Z,2.60
2022-07-28T10:26:52.527Z,3.47
2022-07-28T10:29:23.122Z,3.20
2022-07-28T10:31:54.326Z,3.37
2022-07-28T10:34:24.564Z,4.07
2022-07-28T10:36:55.815Z,3.97
2022-07-28T10:39:29.813Z,3.83
2022-07-28T10:41:58.641Z,3.10
2022-07-28T10:44:28.436Z,2.93
2022-07-28T10:46:58.254Z,3.90
2022-07-28T10:49:32.539Z,3.50
2022-07-28T10:52:06.494Z,3.70
2022-07-28T10:54:47.967Z,3.90
2022-07-28T10:57:17.501Z,4.33
2022-07-28T11:00:12.288Z,2.60
2022-07-28T11:02:50.252Z,3.00
2022-07-28T11:05:36.436Z,3.70
2022-07-28T11:08:07.283Z,3.00
2022-07-28T11:10:48.976Z,3.17
2022-07-28T11:13:33.078Z,3.60
2022-07-28T11:16:21.943Z,3.37
2022-07-28T11:19:07.809Z,3.40
2022-07-28T11:21:39.788Z,3.43
2022-07-28T11:24:13.114Z,10.67
2022-07-28T11:26:47.536Z,124.93
2022-07-28T11:29:20.161Z,361.17
2022-07-28T11:32:04.663Z,272.60
2022-07-28T11:35:08.532Z,113.30
2022-07-28T11:38:12.266Z,194.70
2022-07-28T11:40:42.844Z,264.47
2022-07-28T11:43:36.257Z,236.97
2022-07-28T11:46:25.416Z,276.13
2022-07-28T11:49:16.708Z,203.47
2022-07-28T11:52:16.695Z,130.63
2022-07-28T11:54:51.007Z,51.23
2022-07-28T11:57:21.292Z,74.80
2022-07-28T11:59:54.231Z,105.53
2022-07-28T12:02:25.358Z,154.43
2022-07-28T12:05:18.170Z,136.80
2022-07-28T12:07:49.509Z,146.27
2022-07-28T12:13:29.030Z,34.50
2022-07-28T12:15:58.818Z,33.40
2022-07-28T12:18:26.971Z,31.00
2022-07-28T12:20:55.823Z,52.33
2022-07-28T12:23:38.664Z,52.43
2022-07-28T12:26:12.366Z,55.20
2022-07-28T12:28:40.480Z,60.53
2022-07-28T12:31:13.604Z,89.70
2022-07-28T12:33:42.016Z,57.57
2022-07-28T12:36:10.696Z,40.33
2022-07-28T12:38:38.962Z,51.30
2022-07-28T12:41:15.622Z,46.70
2022-07-28T12:43:51.359Z,48.50
2022-07-28T12:46:28.535Z,18.10
2022-07-28T12:48:57.674Z,14.23
2022-07-28T12:51:36.205Z,10.60
2022-07-28T12:54:06.422Z,40.10
2022-07-28T12:56:45.957Z,5.40
2022-07-28T12:59:14.741Z,18.83
2022-07-28T13:01:52.001Z,8.30
2022-07-28T13:04:38.751Z,10.67
2022-07-28T13:07:09.843Z,12.60
2022-07-28T13:09:41.586Z,17.37
2022-07-28T13:12:17.251Z,23.70
2022-07-28T13:14:46.996Z,26.03
2022-07-28T13:17:16.446Z,19.23
2022-07-28T13:19:45.474Z,33.17
2022-07-28T13:22:13.801Z,24.23
2022-07-28T13:24:41.961Z,18.10
2022-07-28T13:27:10.642Z,18.60
2022-07-28T13:29:38.933Z,9.47
2022-07-28T13:32:08.015Z,7.67
2022-07-28T13:34:37.620Z,4.90
2022-07-28T13:37:06.926Z,14.83
2022-07-28T13:39:35.291Z,6.23
2022-07-28T13:42:05.413Z,5.97
2022-07-28T13:44:35.319Z,6.83
2022-07-28T13:47:05.862Z,10.97
2022-07-28T13:49:37.385Z,13.00
2022-07-28T13:52:13.106Z,11.10
2022-07-28T13:54:41.513Z,6.00
2022-07-28T13:57:10.401Z,6.03
2022-07-28T13:59:38.861Z,6.53
2022-07-28T14:02:15.233Z,7.20
2022-07-28T14:04:46.137Z,9.80
2022-07-28T14:07:21.538Z,9.57
2022-07-28T14:09:51.266Z,7.93
2022-07-28T14:12:19.607Z,5.23
2022-07-28T14:14:48.600Z,5.23
2022-07-28T14:17:42.730Z,5.00
2022-07-28T14:20:12.403Z,7.07
2022-07-28T14:22:42.085Z,7.80
2022-07-28T14:25:11.351Z,6.80
2022-07-28T14:27:42.474Z,7.23
2022-07-28T14:30:12.233Z,4.10
2022-07-28T14:32:40.455Z,5.00
2022-07-28T14:35:09.202Z,4.20
2022-07-28T14:38:11.294Z,7.23
2022-07-28T14:40:27.149Z,5.63
2022-07-28T14:42:55.275Z,4.37
2022-07-28T14:45:23.469Z,4.77
2022-07-28T14:47:51.602Z,4.77
2022-07-28T14:50:19.732Z,3.67
2022-07-28T14:52:47.878Z,3.60
2022-07-28T14:55:16.012Z,4.67
2022-07-28T14:57:48.321Z,3.63
2022-07-28T15:00:23.362Z,3.17
2022-07-28T15:02:53.049Z,3.13
2022-07-28T15:05:22.275Z,3.30
2022-07-28T15:07:52.145Z,3.40
2022-07-28T15:10:20.996Z,3.63
2022-07-28T15:12:52.002Z,4.33
2022-07-28T15:15:26.443Z,3.87
2022-07-28T15:17:56.652Z,4.00
2022-07-28T15:20:25.224Z,4.40
2022-07-28T15:22:53.522Z,5.10
2022-07-28T15:25:21.725Z,4.93
2022-07-28T15:27:51.160Z,4.50
2022-07-28T15:30:19.322Z,6.83
2022-07-28T15:32:56.865Z,3.37
2022-07-28T15:35:26.521Z,3.27
2022-07-28T15:37:55.708Z,3.23
2022-07-28T15:40:24.282Z,3.17
2022-07-28T15:42:53.973Z,3.77
2022-07-28T15:45:22.089Z,3.83
2022-07-28T15:47:50.272Z,4.73
2022-07-28T15:50:18.377Z,3.63
2022-07-28T15:52:46.717Z,3.57
2022-07-28T15:55:14.880Z,3.27
2022-07-28T15:57:43.003Z,3.03
2022-07-28T16:00:13.228Z,3.33
2022-07-28T16:02:41.485Z,3.07
2022-07-28T16:05:10.162Z,3.33
2022-07-28T16:07:41.882Z,2.57
2022-07-28T16:10:13.064Z,3.27
2022-07-28T16:12:41.217Z,3.50
2022-07-28T16:15:10.175Z,3.23
2022-07-28T16:17:41.690Z,3.00
2022-07-28T16:20:11.005Z,2.83
2022-07-28T16:22:40.800Z,2.80
2022-07-28T16:25:11.836Z,2.87
2022-07-28T16:27:44.583Z,2.83
2022-07-28T16:30:13.539Z,3.00
2022-07-28T16:32:43.300Z,2.53
2022-07-28T16:35:12.090Z,2.87
2022-07-28T16:37:41.170Z,3.33
2022-07-28T16:40:10.912Z,2.80
2022-07-28T16:42:39.179Z,3.10
2022-07-28T16:45:08.462Z,3.33
2022-07-28T16:47:36.686Z,4.60
2022-07-28T16:50:06.755Z,2.53
2022-07-28T16:52:36.550Z,3.13
2022-07-28T16:55:07.059Z,2.80
2022-07-28T16:57:38.603Z,3.03
2022-07-28T17:00:07.810Z,3.30
2022-07-28T17:02:35.955Z,2.30
2022-07-28T17:05:06.162Z,2.53
2022-07-28T17:07:34.447Z,2.77
2022-07-28T17:10:02.662Z,2.63
2022-07-28T17:12:30.787Z,2.73
2022-07-28T17:14:58.866Z,2.20
2022-07-28T17:17:26.958Z,2.73
2022-07-28T17:19:55.159Z,2.80
2022-07-28T17:22:24.619Z,2.37
2022-07-28T17:24:52.786Z,3.23
2022-07-28T17:27:38.679Z,2.80
2022-07-28T17:30:09.837Z,2.50
2022-07-28T17:32:37.998Z,2.33
2022-07-28T17:35:10.406Z,2.57
2022-07-28T17:37:59.892Z,2.50
2022-07-28T17:40:28.057Z,2.37
2022-07-28T17:42:56.193Z,2.77
2022-07-28T17:45:24.873Z,3.17
2022-07-28T17:47:53.176Z,2.60
2022-07-28T17:50:21.363Z,2.70
2022-07-28T17:52:49.693Z,2.10
2022-07-28T17:56:00.039Z,2.60
2022-07-28T17:58:31.031Z,3.03
2022-07-28T18:01:11.054Z,2.60
2022-07-28T18:03:58.127Z,2.80
2022-07-28T18:06:34.011Z,2.53
2022-07-28T18:09:06.404Z,4.07
2022-07-28T18:11:58.372Z,2.57
2022-07-28T18:14:27.393Z,2.27
2022-07-28T18:16:56.209Z,2.53
2022-07-28T18:19:24.502Z,2.60
2022-07-28T18:21:52.795Z,2.50
2022-07-28T18:24:22.461Z,2.73
2022-07-28T18:26:52.666Z,2.50
2022-07-28T18:29:21.756Z,3.50
2022-07-28T18:31:51.466Z,2.43
2022-07-28T18:34:23.637Z,4.30
2022-07-28T18:36:53.566Z,2.60
2022-07-28T18:39:21.916Z,3.60
2022-07-28T18:41:50.114Z,5.40
2022-07-28T18:44:20.485Z,2.63
2022-07-28T18:46:49.027Z,2.77
2022-07-28T18:49:17.360Z,2.53
2022-07-28T18:51:46.005Z,2.70
2022-07-28T18:54:18.743Z,2.40
2022-07-28T18:56:49.898Z,2.63
2022-07-28T18:59:19.534Z,2.40
2022-07-28T19:01:47.736Z,3.10
2022-07-28T19:04:16.492Z,3.70
2022-07-28T19:06:44.898Z,5.87
2022-07-28T19:09:12.992Z,4.03
2022-07-28T19:11:46.028Z,2.40
2022-07-28T19:14:15.658Z,3.43
2022-07-28T19:16:45.701Z,2.63
2022-07-28T19:19:14.492Z,2.60
2022-07-28T19:21:43.185Z,2.23
2022-07-28T19:24:12.839Z,2.90
2022-07-28T19:26:41.766Z,2.50
2022-07-28T19:29:09.962Z,2.53
2022-07-28T19:31:38.455Z,3.00
2022-07-28T19:34:08.019Z,2.80
2022-07-28T19:36:37.661Z,2.80
2022-07-28T19:39:05.882Z,2.90
2022-07-28T19:41:34.090Z,2.67
2022-07-28T19:44:02.348Z,3.00
2022-07-28T19:46:30.593Z,2.50
2022-07-28T19:48:58.952Z,3.55
2022-07-28T19:51:28.620Z,2.53
2022-07-28T19:53:58.563Z,3.23
2022-07-28T19:56:31.132Z,3.13
2022-07-28T19:59:00.110Z,3.20
2022-07-28T20:01:28.593Z,2.83
2022-07-28T20:04:03.927Z,4.00
2022-07-28T20:06:34.566Z,2.73
2022-07-28T20:09:02.959Z,3.03
2022-07-28T20:11:32.896Z,4.00
2022-07-28T20:14:01.753Z,3.40
2022-07-28T20:16:29.996Z,4.03
2022-07-28T20:18:58.545Z,3.17
2022-07-28T20:21:27.318Z,3.20
2022-07-28T20:23:58.172Z,2.60
2022-07-28T20:26:27.000Z,3.00
2022-07-28T20:28:56.340Z,2.97
2022-07-28T20:31:24.499Z,3.73
2022-07-28T20:33:52.888Z,3.27
2022-07-28T20:36:23.878Z,3.00
2022-07-28T20:38:56.235Z,3.30
2022-07-28T20:41:25.819Z,2.87
2022-07-28T20:46:42.774Z,3.23
2022-07-28T20:49:11.204Z,3.93
2022-07-28T20:51:39.473Z,2.60
2022-07-28T20:54:13.751Z,3.20
2022-07-28T20:56:44.480Z,2.90
2022-07-28T20:59:12.633Z,2.77
2022-07-28T21:01:41.121Z,3.00
2022-07-28T21:04:11.335Z,3.47
2022-07-28T21:06:40.060Z,3.50
2022-07-28T21:09:19.829Z,2.87
2022-07-28T21:11:49.513Z,3.23
2022-07-28T21:14:18.065Z,3.17
2022-07-28T21:16:46.521Z,4.37
2022-07-28T21:19:14.752Z,3.50
2022-07-28T21:21:42.939Z,3.80
2022-07-28T21:24:11.142Z,3.27
2022-07-28T21:26:41.624Z,2.80
2022-07-28T21:32:04.618Z,4.63
2022-07-28T21:34:35.282Z,3.43
2022-07-28T21:37:03.873Z,3.47
2022-07-28T21:39:32.669Z,3.40
2022-07-28T21:42:01.164Z,3.73
2022-07-28T21:44:30.655Z,5.60
2022-07-28T21:46:58.882Z,2.90
2022-07-28T21:49:28.699Z,3.73
2022-07-28T21:51:56.891Z,3.00
2022-07-28T21:54:25.044Z,3.53
2022-07-28T21:56:53.267Z,4.40
2022-07-28T21:59:21.352Z,3.83
2022-07-28T22:01:50.959Z,3.27
2022-07-28T22:04:19.712Z,3.60
2022-07-28T22:06:48.279Z,3.90
2022-07-28T22:09:16.538Z,3.53
2022-07-28T22:11:45.426Z,3.47
2022-07-28T22:14:14.150Z,3.23
2022-07-28T22:16:42.428Z,3.60
2022-07-28T22:19:12.513Z,2.83
2022-07-28T22:21:40.644Z,3.23
2022-07-28T22:24:09.514Z,2.80
2022-07-28T22:26:37.569Z,2.93
2022-07-28T22:29:05.664Z,3.17
2022-07-28T22:31:33.812Z,3.50
2022-07-28T22:34:01.978Z,3.10
2022-07-28T22:36:31.540Z,3.00
2022-07-28T22:38:59.805Z,3.60
2022-07-28T22:41:28.004Z,3.30
2022-07-28T22:43:56.108Z,3.33
2022-07-28T22:46:24.371Z,3.10
2022-07-28T22:48:52.611Z,3.13
2022-07-28T22:51:20.838Z,3.73
2022-07-28T22:53:50.423Z,3.80
2022-07-28T22:56:18.803Z,4.17
2022-07-28T22:58:47.118Z,3.00
2022-07-28T23:01:15.465Z,3.50
2022-07-28T23:03:45.018Z,3.50
2022-07-28T23:06:15.482Z,2.73
2022-07-28T23:08:43.589Z,3.33
2022-07-28T23:11:13.155Z,3.97
2022-07-28T23:13:41.335Z,3.67
2022-07-28T23:16:09.639Z,3.90
2022-07-28T23:18:39.967Z,4.00
2022-07-28T23:21:08.100Z,3.40
2022-07-28T23:23:36.318Z,4.70
2022-07-28T23:26:04.589Z,3.40
2022-07-28T23:28:36.033Z,3.20
2022-07-28T23:31:04.468Z,3.20
2022-07-28T23:33:55.855Z,3.90
2022-07-28T23:36:26.942Z,3.57
2022-07-28T23:38:56.946Z,4.23
2022-07-28T23:41:25.346Z,2.70
2022-07-28T23:43:55.064Z,3.57
2022-07-28T23:46:23.802Z,3.00
2022-07-28T23:48:52.175Z,5.00
2022-07-28T23:51:21.215Z,3.10
2022-07-28T23:53:54.305Z,3.50
2022-07-28T23:56:24.421Z,2.97
2022-07-28T23:58:54.010Z,3.73
